createdAt,value
2018-07-01T00:00:19.643Z,15.00
2018-07-01T00:02:47.772Z,15.00
2018-07-01T00:05:15.941Z,15.00
2018-07-01T00:07:44.185Z,14.90
2018-07-01T00:10:12.391Z,14.80
2018-07-01T00:12:40.574Z,14.80
2018-07-01T00:15:09.324Z,14.90
2018-07-01T00:17:37.689Z,14.80
2018-07-01T00:20:06.681Z,14.80
2018-07-01T00:22:35.006Z,14.70
2018-07-01T00:25:03.232Z,14.70
2018-07-01T00:27:31.427Z,14.60
2018-07-01T00:29:59.609Z,14.60
2018-07-01T00:32:27.849Z,14.60
2018-07-01T00:34:56.051Z,14.50
2018-07-01T00:37:24.402Z,14.60
2018-07-01T00:39:53.411Z,14.50
2018-07-01T00:42:21.636Z,14.40
2018-07-01T00:44:49.897Z,14.40
2018-07-01T00:47:18.060Z,14.40
2018-07-01T00:49:46.265Z,14.40
2018-07-01T00:52:14.501Z,14.40
2018-07-01T00:54:42.714Z,14.50
2018-07-01T00:57:12.704Z,14.50
2018-07-01T00:59:40.914Z,14.50
2018-07-01T01:02:09.118Z,14.50
2018-07-01T01:04:37.337Z,14.40
2018-07-01T01:07:05.521Z,14.30
2018-07-01T01:09:33.712Z,14.30
2018-07-01T01:12:01.873Z,14.30
2018-07-01T01:14:30.040Z,14.30
2018-07-01T01:16:58.253Z,14.30
2018-07-01T01:19:26.448Z,14.30
2018-07-01T01:21:54.617Z,14.30
2018-07-01T01:24:22.791Z,14.20
2018-07-01T01:26:51.085Z,14.20
2018-07-01T01:29:19.244Z,14.20
2018-07-01T01:31:47.445Z,14.10
2018-07-01T01:34:15.606Z,14.10
2018-07-01T01:36:44.460Z,14.10
2018-07-01T01:39:15.424Z,14.10
2018-07-01T01:41:52.737Z,14.10
2018-07-01T01:44:27.850Z,14.10
2018-07-01T01:46:59.828Z,14.10
2018-07-01T01:49:33.395Z,14.00
2018-07-01T01:52:05.143Z,14.00
2018-07-01T01:54:37.742Z,14.00
2018-07-01T01:57:09.891Z,14.00
2018-07-01T01:59:43.559Z,13.90
2018-07-01T02:02:17.017Z,13.80
2018-07-01T02:05:04.492Z,13.70
2018-07-01T02:07:40.940Z,13.60
2018-07-01T02:10:09.173Z,13.60
2018-07-01T02:12:37.303Z,13.50
2018-07-01T02:15:09.470Z,13.60
2018-07-01T02:17:40.246Z,13.50
2018-07-01T02:20:08.926Z,13.50
2018-07-01T02:22:39.903Z,13.50
2018-07-01T02:25:12.838Z,13.50
2018-07-01T02:27:40.996Z,13.40
2018-07-01T02:30:09.290Z,13.40
2018-07-01T02:32:37.516Z,13.30
2018-07-01T02:35:05.707Z,13.40
2018-07-01T02:37:34.044Z,13.30
2018-07-01T02:40:02.235Z,13.30
2018-07-01T02:42:30.454Z,13.30
2018-07-01T02:44:58.690Z,13.30
2018-07-01T02:47:26.893Z,13.30
2018-07-01T02:49:55.189Z,13.30
2018-07-01T02:52:23.393Z,13.30
2018-07-01T02:54:51.588Z,13.20
2018-07-01T02:57:19.761Z,13.20
2018-07-01T02:59:47.937Z,13.10
2018-07-01T03:02:16.262Z,13.00
2018-07-01T03:04:44.394Z,13.00
2018-07-01T03:07:12.544Z,12.90
2018-07-01T03:09:40.696Z,12.80
2018-07-01T03:12:08.817Z,12.90
2018-07-01T03:14:36.965Z,13.00
2018-07-01T03:17:05.365Z,13.00
2018-07-01T03:19:33.529Z,12.90
2018-07-01T03:22:01.700Z,12.90
2018-07-01T03:24:29.840Z,12.90
2018-07-01T03:26:57.997Z,12.80
2018-07-01T03:29:26.129Z,12.80
2018-07-01T03:31:54.288Z,12.80
2018-07-01T03:34:22.632Z,12.80
2018-07-01T03:36:50.775Z,12.80
2018-07-01T03:39:18.926Z,12.90
2018-07-01T03:41:47.099Z,12.80
2018-07-01T03:44:15.279Z,12.90
2018-07-01T03:46:43.433Z,12.80
2018-07-01T03:49:11.583Z,12.90
2018-07-01T03:51:39.748Z,12.90
2018-07-01T03:54:07.915Z,12.90
2018-07-01T03:56:36.040Z,12.80
2018-07-01T03:59:04.202Z,12.90
2018-07-01T04:01:32.355Z,12.90
2018-07-01T04:04:00.528Z,12.90
2018-07-01T04:06:28.691Z,12.90
2018-07-01T04:08:56.893Z,13.00
2018-07-01T04:11:25.072Z,13.00
2018-07-01T04:13:53.722Z,13.00
2018-07-01T04:16:21.931Z,13.00
2018-07-01T04:18:50.103Z,13.10
2018-07-01T04:21:18.275Z,13.10
2018-07-01T04:23:46.408Z,13.10
2018-07-01T04:26:14.572Z,13.20
2018-07-01T04:28:42.746Z,13.20
2018-07-01T04:31:11.016Z,13.20
2018-07-01T04:33:39.154Z,13.20
2018-07-01T04:36:07.291Z,13.30
2018-07-01T04:38:35.578Z,13.30
2018-07-01T04:41:03.771Z,13.40
2018-07-01T04:43:31.928Z,13.40
2018-07-01T04:46:00.065Z,13.50
2018-07-01T04:48:28.211Z,13.60
2018-07-01T04:50:56.421Z,13.60
2018-07-01T04:53:24.591Z,13.60
2018-07-01T04:55:52.768Z,13.70
2018-07-01T04:58:20.942Z,13.80
2018-07-01T05:00:49.084Z,13.90
2018-07-01T05:03:17.324Z,13.90
2018-07-01T05:05:45.511Z,14.00
2018-07-01T05:08:13.677Z,14.10
2018-07-01T05:10:41.866Z,14.10
2018-07-01T05:13:10.138Z,14.20
2018-07-01T05:15:38.523Z,14.20
2018-07-01T05:18:06.721Z,14.30
2018-07-01T05:20:34.909Z,14.40
2018-07-01T05:23:03.129Z,14.40
2018-07-01T05:25:31.500Z,14.60
2018-07-01T05:27:59.594Z,14.80
2018-07-01T05:30:27.752Z,15.00
2018-07-01T05:32:55.967Z,15.50
2018-07-01T05:35:24.091Z,15.90
2018-07-01T05:37:52.243Z,16.00
2018-07-01T05:40:20.352Z,16.10
2018-07-01T05:42:48.620Z,15.90
2018-07-01T05:45:16.870Z,15.80
2018-07-01T05:47:45.691Z,15.80
2018-07-01T05:50:13.864Z,15.80
2018-07-01T05:52:42.057Z,15.70
2018-07-01T05:55:16.439Z,15.70
2018-07-01T05:57:45.362Z,15.60
2018-07-01T06:00:13.747Z,15.50
2018-07-01T06:02:42.004Z,15.50
2018-07-01T06:05:10.150Z,15.50
2018-07-01T06:07:38.297Z,15.60
2018-07-01T06:10:06.422Z,15.70
2018-07-01T06:12:34.585Z,15.80
2018-07-01T06:15:02.776Z,16.00
2018-07-01T06:17:30.964Z,16.10
2018-07-01T06:20:00.157Z,16.30
2018-07-01T06:22:28.320Z,16.40
2018-07-01T06:24:56.487Z,16.40
2018-07-01T06:27:24.661Z,16.40
2018-07-01T06:29:52.880Z,16.50
2018-07-01T06:32:21.056Z,16.50
2018-07-01T06:34:49.256Z,16.50
2018-07-01T06:37:17.475Z,16.50
2018-07-01T06:39:45.648Z,16.50
2018-07-01T06:42:13.799Z,16.60
2018-07-01T06:44:41.983Z,16.70
2018-07-01T06:47:10.115Z,16.70
2018-07-01T06:49:38.329Z,16.70
2018-07-01T06:52:07.670Z,16.80
2018-07-01T06:54:35.806Z,16.90
2018-07-01T06:57:04.000Z,17.00
2018-07-01T06:59:32.141Z,17.10
2018-07-01T07:02:00.317Z,17.10
2018-07-01T07:04:28.462Z,17.10
2018-07-01T07:06:56.752Z,17.30
2018-07-01T07:09:24.902Z,17.30
2018-07-01T07:11:53.071Z,17.50
2018-07-01T07:14:22.391Z,17.60
2018-07-01T07:16:50.696Z,17.80
2018-07-01T07:19:18.888Z,18.00
2018-07-01T07:21:47.367Z,18.10
2018-07-01T07:24:15.527Z,18.30
2018-07-01T07:26:43.780Z,18.40
2018-07-01T07:29:11.908Z,18.50
2018-07-01T07:31:40.053Z,18.50
2018-07-01T07:34:08.220Z,18.50
2018-07-01T07:36:36.360Z,18.40
2018-07-01T07:39:07.021Z,18.40
2018-07-01T07:41:35.308Z,18.50
2018-07-01T07:44:03.768Z,18.40
2018-07-01T07:46:31.987Z,18.30
2018-07-01T07:49:00.373Z,18.40
2018-07-01T07:51:30.416Z,18.40
2018-07-01T07:53:58.692Z,18.50
2018-07-01T07:56:26.866Z,18.60
2018-07-01T07:58:55.070Z,18.50
2018-07-01T08:01:23.240Z,18.60
2018-07-01T08:03:51.417Z,18.60
2018-07-01T08:06:19.569Z,18.70
2018-07-01T08:08:47.773Z,18.70
2018-07-01T08:11:15.947Z,18.80
2018-07-01T08:13:44.120Z,18.90
2018-07-01T08:16:12.280Z,18.90
2018-07-01T08:18:40.855Z,19.00
2018-07-01T08:21:09.033Z,19.00
2018-07-01T08:23:37.152Z,19.10
2018-07-01T08:26:05.435Z,19.20
2018-07-01T08:28:33.789Z,19.20
2018-07-01T08:31:01.982Z,19.30
2018-07-01T08:33:30.151Z,19.50
2018-07-01T08:35:58.285Z,19.50
2018-07-01T08:38:26.465Z,19.60
2018-07-01T08:40:54.627Z,19.60
2018-07-01T08:43:22.771Z,19.70
2018-07-01T08:45:50.961Z,19.70
2018-07-01T08:48:19.156Z,19.80
2018-07-01T08:50:47.328Z,19.90
2018-07-01T08:53:15.502Z,20.00
2018-07-01T08:55:43.677Z,20.00
2018-07-01T08:58:11.972Z,20.10
2018-07-01T09:00:40.116Z,20.10
2018-07-01T09:03:08.247Z,20.20
2018-07-01T09:05:36.448Z,20.30
2018-07-01T09:08:04.647Z,20.30
2018-07-01T09:10:32.828Z,20.30
2018-07-01T09:13:00.986Z,20.20
2018-07-01T09:15:29.312Z,20.20
2018-07-01T09:17:57.555Z,20.20
2018-07-01T09:20:25.739Z,20.20
2018-07-01T09:22:54.211Z,20.30
2018-07-01T09:25:22.492Z,20.30
2018-07-01T09:27:50.718Z,20.40
2018-07-01T09:30:18.920Z,20.50
2018-07-01T09:32:47.076Z,20.50
2018-07-01T09:35:15.273Z,20.50
2018-07-01T09:37:43.430Z,20.50
2018-07-01T09:40:11.603Z,20.50
2018-07-01T09:42:39.858Z,20.60
2018-07-01T09:45:08.056Z,20.70
2018-07-01T09:47:36.259Z,20.70
2018-07-01T09:50:04.735Z,20.70
2018-07-01T09:52:32.945Z,20.70
2018-07-01T09:55:01.070Z,20.80
2018-07-01T09:57:29.238Z,20.80
2018-07-01T09:59:57.827Z,20.90
2018-07-01T10:02:25.980Z,21.00
2018-07-01T10:04:54.160Z,20.90
2018-07-01T10:07:22.439Z,20.80
2018-07-01T10:09:50.601Z,20.90
2018-07-01T10:12:18.772Z,20.90
2018-07-01T10:14:46.946Z,21.00
2018-07-01T10:17:15.141Z,21.10
2018-07-01T10:19:43.391Z,21.20
2018-07-01T10:22:11.561Z,21.20
2018-07-01T10:24:39.783Z,21.20
2018-07-01T10:27:08.006Z,21.10
2018-07-01T10:29:36.137Z,21.20
2018-07-01T10:32:04.279Z,21.30
2018-07-01T10:34:32.448Z,21.30
2018-07-01T10:37:00.634Z,21.40
2018-07-01T10:39:28.848Z,21.40
2018-07-01T10:41:56.992Z,21.50
2018-07-01T10:44:25.160Z,21.60
2018-07-01T10:46:53.344Z,21.70
2018-07-01T10:49:21.556Z,21.80
2018-07-01T10:51:51.298Z,21.80
2018-07-01T10:54:19.440Z,21.80
2018-07-01T10:56:47.594Z,21.80
2018-07-01T10:59:15.745Z,21.90
2018-07-01T11:01:43.881Z,21.90
2018-07-01T11:04:12.096Z,21.90
2018-07-01T11:06:40.246Z,22.00
2018-07-01T11:09:09.880Z,22.00
2018-07-01T11:11:38.143Z,22.10
2018-07-01T11:14:06.430Z,22.20
2018-07-01T11:16:34.641Z,22.20
2018-07-01T11:19:02.849Z,22.40
2018-07-01T11:21:31.039Z,22.30
2018-07-01T11:23:59.193Z,22.30
2018-07-01T11:26:27.373Z,22.30
2018-07-01T11:28:55.588Z,22.40
2018-07-01T11:31:23.727Z,22.30
2018-07-01T11:33:59.588Z,22.30
2018-07-01T11:36:27.833Z,22.30
2018-07-01T11:38:56.072Z,22.20
2018-07-01T11:41:24.278Z,22.10
2018-07-01T11:43:52.603Z,22.20
2018-07-01T11:46:20.833Z,22.20
2018-07-01T11:48:49.066Z,22.40
2018-07-01T11:51:17.287Z,22.40
2018-07-01T11:53:45.523Z,22.50
2018-07-01T11:56:13.714Z,22.60
2018-07-01T11:58:41.881Z,22.60
2018-07-01T12:01:10.068Z,22.60
2018-07-01T12:03:38.375Z,22.40
2018-07-01T12:06:06.537Z,22.30
2018-07-01T12:08:34.762Z,22.20
2018-07-01T12:11:02.933Z,22.20
2018-07-01T12:13:31.133Z,22.30
2018-07-01T12:15:59.357Z,22.40
2018-07-01T12:18:27.599Z,22.50
2018-07-01T12:20:55.774Z,22.40
2018-07-01T12:23:23.971Z,22.50
2018-07-01T12:25:52.152Z,22.60
2018-07-01T12:28:20.346Z,22.70
2018-07-01T12:30:48.487Z,22.70
2018-07-01T12:33:16.681Z,22.60
2018-07-01T12:35:44.832Z,22.40
2018-07-01T12:38:20.363Z,22.40
2018-07-01T12:40:48.866Z,22.30
2018-07-01T12:43:16.992Z,22.40
2018-07-01T12:45:48.096Z,22.50
2018-07-01T12:48:16.254Z,22.60
2018-07-01T12:50:44.481Z,22.40
2018-07-01T12:53:12.712Z,22.30
2018-07-01T12:55:40.932Z,22.30
2018-07-01T12:58:09.144Z,22.30
2018-07-01T13:00:37.354Z,22.20
2018-07-01T13:03:05.577Z,22.20
2018-07-01T13:05:33.784Z,22.30
2018-07-01T13:08:01.979Z,22.50
2018-07-01T13:10:30.199Z,22.60
2018-07-01T13:12:58.477Z,22.80
2018-07-01T13:15:26.629Z,22.90
2018-07-01T13:17:54.824Z,23.00
2018-07-01T13:20:23.129Z,23.00
2018-07-01T13:22:51.326Z,23.00
2018-07-01T13:25:20.210Z,23.00
2018-07-01T13:27:48.417Z,22.90
2018-07-01T13:30:16.796Z,22.90
2018-07-01T13:32:45.068Z,23.00
2018-07-01T13:35:13.310Z,23.00
2018-07-01T13:37:41.677Z,23.00
2018-07-01T13:40:10.010Z,23.00
2018-07-01T13:42:38.219Z,23.00
2018-07-01T13:45:07.312Z,23.00
2018-07-01T13:47:35.529Z,22.90
2018-07-01T13:50:03.850Z,22.90
2018-07-01T13:52:32.041Z,22.90
2018-07-01T13:55:00.225Z,22.80
2018-07-01T13:57:28.408Z,22.80
2018-07-01T13:59:56.689Z,22.80
2018-07-01T14:02:24.960Z,22.80
2018-07-01T14:04:53.220Z,22.90
2018-07-01T14:07:21.416Z,22.90
2018-07-01T14:09:49.592Z,22.80
2018-07-01T14:12:17.818Z,22.80
2018-07-01T14:14:46.050Z,22.90
2018-07-01T14:17:14.296Z,22.90
2018-07-01T14:19:42.541Z,22.90
2018-07-01T14:22:10.835Z,22.90
2018-07-01T14:24:39.028Z,22.90
2018-07-01T14:27:07.332Z,22.90
2018-07-01T14:29:35.575Z,22.80
2018-07-01T14:32:03.832Z,22.70
2018-07-01T14:34:33.089Z,22.70
2018-07-01T14:37:01.446Z,22.70
2018-07-01T14:39:29.593Z,22.60
2018-07-01T14:41:57.852Z,22.60
2018-07-01T14:44:26.326Z,22.60
2018-07-01T14:46:54.640Z,22.60
2018-07-01T14:49:23.335Z,22.60
2018-07-01T14:51:51.527Z,22.50
2018-07-01T14:54:19.751Z,22.50
2018-07-01T14:56:48.083Z,22.50
2018-07-01T14:59:17.124Z,22.50
2018-07-01T15:01:45.316Z,22.50
2018-07-01T15:04:13.506Z,22.50
2018-07-01T15:06:41.831Z,22.50
2018-07-01T15:09:11.074Z,22.40
2018-07-01T15:11:39.351Z,22.50
2018-07-01T15:14:07.949Z,22.50
2018-07-01T15:16:36.314Z,22.50
2018-07-01T15:19:04.604Z,22.50
2018-07-01T15:21:33.008Z,22.50
2018-07-01T15:24:01.230Z,22.40
2018-07-01T15:26:29.495Z,22.40
2018-07-01T15:28:57.805Z,22.40
2018-07-01T15:31:25.967Z,22.30
2018-07-01T15:33:54.183Z,22.30
2018-07-01T15:36:22.355Z,22.20
2018-07-01T15:38:50.533Z,22.20
2018-07-01T15:41:18.768Z,22.20
2018-07-01T15:43:46.922Z,22.20
2018-07-01T15:46:15.101Z,22.20
2018-07-01T15:48:43.357Z,22.20
2018-07-01T15:51:11.479Z,22.20
2018-07-01T15:53:39.635Z,22.20
2018-07-01T15:56:07.937Z,22.20
2018-07-01T15:58:36.066Z,22.30
2018-07-01T16:01:04.437Z,22.30
2018-07-01T16:03:32.631Z,22.30
2018-07-01T16:06:00.822Z,22.30
2018-07-01T16:08:29.021Z,22.40
2018-07-01T16:10:57.331Z,22.40
2018-07-01T16:13:25.715Z,22.50
2018-07-01T16:15:54.281Z,22.60
2018-07-01T16:18:23.351Z,22.70
2018-07-01T16:20:56.266Z,22.90
2018-07-01T16:23:26.808Z,22.80
2018-07-01T16:26:02.051Z,22.70
2018-07-01T16:28:38.114Z,22.60
2018-07-01T16:31:10.876Z,22.20
2018-07-01T16:33:45.178Z,22.10
2018-07-01T16:36:16.740Z,21.90
2018-07-01T16:38:45.351Z,21.90
2018-07-01T16:44:15.028Z,21.70
2018-07-01T16:46:59.003Z,21.70
2018-07-01T16:49:29.782Z,21.70
2018-07-01T16:51:59.980Z,21.60
2018-07-01T16:54:35.331Z,21.60
2018-07-01T16:57:05.971Z,21.60
2018-07-01T16:59:34.903Z,21.60
2018-07-01T17:02:10.261Z,21.60
2018-07-01T17:04:43.562Z,21.50
2018-07-01T17:07:12.444Z,21.50
2018-07-01T17:09:42.526Z,21.40
2018-07-01T17:12:10.957Z,21.40
2018-07-01T17:14:40.240Z,21.30
2018-07-01T17:17:11.711Z,21.30
2018-07-01T17:19:41.891Z,21.30
2018-07-01T17:22:12.091Z,21.30
2018-07-01T17:24:40.643Z,21.20
2018-07-01T17:27:09.476Z,21.20
2018-07-01T17:29:44.158Z,21.20
2018-07-01T17:32:18.068Z,21.20
2018-07-01T17:34:46.802Z,21.20
2018-07-01T17:40:06.887Z,21.10
2018-07-01T17:42:35.712Z,21.00
2018-07-01T17:45:04.386Z,21.00
2018-07-01T17:47:34.184Z,20.90
2018-07-01T17:50:03.096Z,20.90
2018-07-01T17:52:32.034Z,20.80
2018-07-01T17:55:03.863Z,20.70
2018-07-01T17:57:32.457Z,20.80
2018-07-01T18:00:09.113Z,20.70
2018-07-01T18:02:38.148Z,20.70
2018-07-01T18:05:07.171Z,20.70
2018-07-01T18:07:35.537Z,20.60
2018-07-01T18:10:04.010Z,20.50
2018-07-01T18:12:32.329Z,20.60
2018-07-01T18:15:00.689Z,20.50
2018-07-01T18:17:29.074Z,20.40
2018-07-01T18:19:57.369Z,20.40
2018-07-01T18:22:52.496Z,20.40
2018-07-01T18:25:04.500Z,20.30
2018-07-01T18:27:22.352Z,20.20
2018-07-01T18:29:50.531Z,20.20
2018-07-01T18:32:18.776Z,20.20
2018-07-01T18:34:47.123Z,20.10
2018-07-01T18:37:15.440Z,20.10
2018-07-01T18:39:43.747Z,20.00
2018-07-01T18:42:12.032Z,20.00
2018-07-01T18:44:41.358Z,20.00
2018-07-01T18:47:10.038Z,19.90
2018-07-01T18:49:38.650Z,19.90
2018-07-01T18:52:07.310Z,19.80
2018-07-01T18:54:36.024Z,19.80
2018-07-01T18:57:04.349Z,19.70
2018-07-01T18:59:33.173Z,19.70
2018-07-01T19:02:07.925Z,19.60
2018-07-01T19:04:37.402Z,19.60
2018-07-01T19:07:05.706Z,19.60
2018-07-01T19:09:34.112Z,19.50
2018-07-01T19:12:02.420Z,19.50
2018-07-01T19:14:31.206Z,19.50
2018-07-01T19:16:59.515Z,19.40
2018-07-01T19:19:27.956Z,19.30
2018-07-01T19:21:57.488Z,19.20
2018-07-01T19:24:26.858Z,19.20
2018-07-01T19:26:55.276Z,19.20
2018-07-01T19:29:23.580Z,19.20
2018-07-01T19:31:51.925Z,19.10
2018-07-01T19:34:20.486Z,19.10
2018-07-01T19:36:48.901Z,19.00
2018-07-01T19:39:18.189Z,18.90
2018-07-01T19:41:46.907Z,18.90
2018-07-01T19:44:15.263Z,18.80
2018-07-01T19:46:43.470Z,18.80
2018-07-01T19:49:11.896Z,18.80
2018-07-01T19:51:40.235Z,18.60
2018-07-01T19:54:08.526Z,18.60
2018-07-01T19:56:36.748Z,18.60
2018-07-01T19:59:05.405Z,18.40
2018-07-01T20:01:33.676Z,18.40
2018-07-01T20:04:02.028Z,18.40
2018-07-01T20:06:30.381Z,18.30
2018-07-01T20:08:58.904Z,18.30
2018-07-01T20:11:27.121Z,18.30
2018-07-01T20:13:55.408Z,18.30
2018-07-01T20:16:23.620Z,18.20
2018-07-01T20:18:51.840Z,18.20
2018-07-01T20:21:20.047Z,18.10
2018-07-01T20:23:48.240Z,18.10
2018-07-01T20:26:16.435Z,18.00
2018-07-01T20:28:44.629Z,18.00
2018-07-01T20:31:12.804Z,17.90
2018-07-01T20:33:41.153Z,17.90
2018-07-01T20:36:09.523Z,17.80
2018-07-01T20:38:37.682Z,17.80
2018-07-01T20:41:06.078Z,17.70
2018-07-01T20:43:34.267Z,17.70
2018-07-01T20:46:02.566Z,17.60
2018-07-01T20:48:30.759Z,17.50
2018-07-01T20:50:59.072Z,17.50
2018-07-01T20:53:27.283Z,17.50
2018-07-01T20:55:55.439Z,17.40
2018-07-01T21:01:14.864Z,17.40
2018-07-01T21:03:43.127Z,17.30
2018-07-01T21:06:11.393Z,17.30
2018-07-01T21:08:39.565Z,17.20
2018-07-01T21:11:07.849Z,17.10
2018-07-01T21:13:36.073Z,17.00
2018-07-01T21:16:04.289Z,16.90
2018-07-01T21:18:32.514Z,16.80
2018-07-01T21:21:00.696Z,16.80
2018-07-01T21:23:28.977Z,16.80
2018-07-01T21:25:57.224Z,16.80
2018-07-01T21:28:25.398Z,16.70
2018-07-01T21:30:53.574Z,16.70
2018-07-01T21:33:35.160Z,16.70
2018-07-01T21:36:05.121Z,16.70
2018-07-01T21:38:33.642Z,16.60
2018-07-01T21:41:01.891Z,16.60
2018-07-01T21:43:30.501Z,16.60
2018-07-01T21:45:59.106Z,16.50
2018-07-01T21:48:27.929Z,16.40
2018-07-01T21:50:56.225Z,16.30
2018-07-01T21:53:24.534Z,16.20
2018-07-01T21:55:53.184Z,16.10
2018-07-01T21:58:21.855Z,16.00
2018-07-01T22:00:50.605Z,16.00
2018-07-01T22:08:59.896Z,15.90
2018-07-01T22:11:50.551Z,15.80
2018-07-01T22:14:25.964Z,15.80
2018-07-01T22:16:54.282Z,15.80
2018-07-01T22:19:22.545Z,15.80
2018-07-01T22:21:51.753Z,15.80
2018-07-01T22:24:19.996Z,15.70
2018-07-01T22:26:48.217Z,15.70
2018-07-01T22:29:17.183Z,15.70
2018-07-01T22:31:45.620Z,15.60
2018-07-01T22:34:14.962Z,15.50
2018-07-01T22:36:44.036Z,15.50
2018-07-01T22:39:20.797Z,15.40
2018-07-01T22:41:49.573Z,15.40
2018-07-01T22:44:17.813Z,15.30
2018-07-01T22:46:46.628Z,15.30
2018-07-01T22:49:14.852Z,15.20
2018-07-01T22:51:43.183Z,15.10
2018-07-01T22:54:11.379Z,15.10
2018-07-01T22:59:29.832Z,15.00
2018-07-01T23:03:09.367Z,14.90
2018-07-01T23:05:37.603Z,14.90
2018-07-01T23:08:05.990Z,14.80
2018-07-01T23:10:34.253Z,14.80
2018-07-01T23:13:02.532Z,14.70
2018-07-01T23:15:30.725Z,14.70
2018-07-01T23:17:58.965Z,14.70
2018-07-01T23:20:27.229Z,14.70
2018-07-01T23:22:55.599Z,14.60
2018-07-01T23:25:23.957Z,14.60
2018-07-01T23:27:52.194Z,14.60
2018-07-01T23:30:20.453Z,14.60
2018-07-01T23:32:48.709Z,14.60
2018-07-01T23:35:17.013Z,14.50
2018-07-01T23:37:45.287Z,14.50
2018-07-01T23:40:13.508Z,14.40
2018-07-01T23:42:42.250Z,14.40
2018-07-01T23:45:13.597Z,14.30
2018-07-01T23:47:41.948Z,14.30
2018-07-01T23:50:10.178Z,14.20
2018-07-01T23:52:38.429Z,14.20
2018-07-01T23:55:07.227Z,14.10
2018-07-01T23:57:35.434Z,14.10
